Flight Track Log - Related Links

Times and Time Zones

All times are in EDT time to prevent confusion due to time zone crossing. See the N458Q flight status page for this flight to view local times or setup timezone preferences in your user account.

Time Position Orientation Groundspeed Altitude Reporting Facility
EDT Latitude Longitude Course Direction KTS MPH feet Rate Location/Type
Sun 03:47:34 PM 33.7500 -116.2833 309° West 181 208 8,000  Level Southern California TRACON
Sun 03:48:34 PM 33.7833 -116.3333 341° North 189 217 10,300 2,056 Climbing Southern California TRACON
Sun 03:49:57 PM 33.8517 -116.3614 13° North 208 239 12,900 1,091 Climbing Los Angeles Center
Sun 03:50:57 PM 33.9225 -116.3414 13° North 241 277 12,900  Level Los Angeles Center
Sun 03:51:57 PM 34.0019 -116.3192 348° North 260 299 12,900 50 Level Los Angeles Center
Sun 03:52:57 PM 34.0811 -116.3394 314° West 283 326 13,000 100 Climbing Los Angeles Center
Sun 03:53:57 PM 34.1333 -116.4047 312° West 269 310 13,100 50 Climbing Los Angeles Center
Sun 03:54:57 PM 34.1894 -116.4803 326° Northwest 279 321 13,100 150 Level Los Angeles Center
Sun 03:55:57 PM 34.2581 -116.5358 337° Northwest 291 335 13,400 450 Climbing Los Angeles Center
Sun 03:56:57 PM 34.3289 -116.5714 335° Northwest 286 329 14,000 1,250 Climbing Los Angeles Center
Sun 03:57:57 PM 34.3978 -116.6097 338° Northwest 275 316 15,900 1,750 Climbing Los Angeles Center
Sun 03:58:57 PM 34.4644 -116.6428 340° North 264 304 17,500 1,400 Climbing Los Angeles Center
Sun 03:59:57 PM 34.5289 -116.6708 334° Northwest 252 290 18,700 750 Climbing Los Angeles Center
Sun 04:00:57 PM 34.5975 -116.7117 334° Northwest 259 298 19,000 150 Climbing Los Angeles Center
Sun 04:01:57 PM 34.6725 -116.7553 334° Northwest 274 315 19,000  Level Los Angeles Center
Sun 04:02:57 PM 34.7494 -116.8014 334° Northwest 294 338 19,000 50 Level Los Angeles Center
Sun 04:03:57 PM 34.8286 -116.8475 334° Northwest 299 344 19,100 1,350 Climbing Los Angeles Center
Sun 04:04:57 PM 34.8931 -116.8861 334° Northwest 285 328 21,700 1,750 Climbing Los Angeles Center
Sun 04:05:57 PM 34.9533 -116.9219 334° Northwest 258 297 22,600 700 Climbing Los Angeles Center
Sun 04:06:57 PM 35.0197 -116.9608 333° Northwest 253 291 23,100 1,150 Climbing Los Angeles Center
Sun 04:07:57 PM 35.0819 -116.9994 336° Northwest 258 297 24,900 1,450 Climbing Los Angeles Center
Sun 04:08:57 PM 35.1444 -117.0333 332° Northwest 248 285 26,000 1,150 Climbing Los Angeles Center
Sun 04:09:57 PM 35.2047 -117.0719 334° Northwest 242 278 27,200 1,000 Climbing Los Angeles Center
Sun 04:10:57 PM 35.2669 -117.1083 335° Northwest 242 278 28,000 400 Climbing Los Angeles Center
Sun 04:11:57 PM 35.3356 -117.1475 334° Northwest 242 278 28,000  Level Los Angeles Center
Sun 04:12:57 PM 35.4081 -117.1917 334° Northwest 265 305 28,000  Level Los Angeles Center
Sun 04:13:57 PM 35.4892 -117.2411 333° Northwest 287 330 28,000  Level Los Angeles Center
Sun 04:14:57 PM 35.5639 -117.2881 334° Northwest 287 330 28,000  Level Los Angeles Center
Sun 04:15:57 PM 35.6383 -117.3328 334° Northwest 292 336 28,000  Level Los Angeles Center
Sun 04:16:57 PM 35.7131 -117.3772 333° Northwest 297 342 28,000  Level Los Angeles Center
Sun 04:17:57 PM 35.7856 -117.4219 334° Northwest 297 342 28,000  Level Los Angeles Center
Sun 04:18:57 PM 35.8644 -117.4692 334° Northwest 297 342 28,000  Level Los Angeles Center
Sun 04:19:57 PM 35.9392 -117.5142 334° Northwest 297 342 28,000  Level Los Angeles Center
Sun 04:20:57 PM 36.0136 -117.5592 333° Northwest 297 342 28,000  Level Los Angeles Center
Sun 04:21:57 PM 36.0861 -117.6042 333° Northwest 297 342 28,000  Level Los Angeles Center
Sun 04:31:09 PM 36.7178 -118.0044 334° Northwest 263 303 28,000  Level Oakland Center
Sun 04:35:10 PM 36.9803 -118.1631 338° Northwest 267 307 28,000  Level Oakland Center
Sun 04:36:09 PM 37.0478 -118.1969 339° North 262 302 28,000  Level Oakland Center
Sun 04:37:09 PM 37.1133 -118.2283 340° North 256 295 28,000  Level Oakland Center
Sun 04:38:10 PM 37.1828 -118.2597 337° Northwest 256 295 28,000  Level Oakland Center
Sun 04:39:09 PM 37.2483 -118.2939 341° North 256 295 28,000  Level Oakland Center
Sun 04:40:09 PM 37.3031 -118.3181 339° North 256 295 28,000  Level Oakland Center
Sun 04:41:09 PM 37.3789 -118.3547 338° Northwest 256 295 28,000  Level Oakland Center
Sun 04:42:09 PM 37.4444 -118.3889 340° North 256 295 28,000  Level Oakland Center
Sun 04:43:09 PM 37.5139 -118.4206 339° North 256 295 28,000  Level Oakland Center
Sun 04:44:09 PM 37.5794 -118.4525 339° North 256 295 28,000  Level Oakland Center
Sun 04:45:09 PM 37.6489 -118.4867 338° Northwest 256 295 28,000  Level Oakland Center
Sun 04:46:09 PM 37.7164 -118.5214 339° North 256 295 28,000  Level Oakland Center
Sun 04:47:09 PM 37.7817 -118.5533 339° North 256 295 28,000  Level Oakland Center
Sun 04:48:09 PM 37.8511 -118.5878 339° North 256 295 28,000  Level Oakland Center
Sun 04:49:09 PM 37.9167 -118.6200 339° North 256 295 28,000  Level Oakland Center
Sun 04:50:09 PM 37.9839 -118.6519 339° North 256 295 28,000  Level Oakland Center
Sun 04:51:09 PM 38.0514 -118.6842 338° Northwest 256 295 28,000  Level Oakland Center
Sun 04:52:09 PM 38.1189 -118.7189 335° Northwest 256 295 28,000  Level Oakland Center
Sun 04:53:09 PM 38.1778 -118.7542 339° North 251 289 28,000  Level Oakland Center
Sun 04:54:09 PM 38.2453 -118.7867 339° North 251 289 28,000  Level Oakland Center
Sun 04:55:09 PM 38.3125 -118.8189 338° Northwest 256 295 28,000  Level Oakland Center
Sun 04:56:09 PM 38.3800 -118.8542 337° Northwest 256 295 28,000  Level Oakland Center
Sun 04:57:09 PM 38.4453 -118.8892 338° Northwest 256 295 28,000  Level Oakland Center
Sun 04:58:09 PM 38.5125 -118.9244 338° Northwest 256 295 28,000  Level Oakland Center
Sun 04:59:09 PM 38.5800 -118.9597 339° North 256 295 28,000  Level Oakland Center
Sun 05:00:09 PM 38.6472 -118.9925 338° Northwest 256 295 28,000  Level Oakland Center
Sun 05:01:09 PM 38.7144 -119.0278 339° North 256 295 28,000  Level Oakland Center
Sun 05:02:09 PM 38.7819 -119.0606 337° Northwest 256 295 28,000  Level Oakland Center
Sun 05:03:09 PM 38.8469 -119.0964 340° North 256 295 28,000  Level Oakland Center
Sun 05:04:09 PM 38.9164 -119.1292 337° Northwest 256 295 28,000  Level Oakland Center
Sun 05:05:09 PM 38.9817 -119.1650 338° Northwest 256 295 28,000  Level Oakland Center
Sun 05:06:09 PM 39.0489 -119.2006 338° Northwest 256 295 28,000  Level Oakland Center
Sun 05:07:09 PM 39.1183 -119.2364 337° Northwest 256 295 28,000  Level Oakland Center
Sun 05:08:09 PM 39.1833 -119.2722 339° North 256 295 28,000  Level Oakland Center
Sun 05:09:09 PM 39.2506 -119.3056 337° Northwest 256 295 28,000  Level Oakland Center
Sun 05:10:09 PM 39.3178 -119.3417 338° Northwest 256 295 28,000  Level Oakland Center
Sun 05:11:10 PM 39.3914 -119.3803 339° North 256 295 28,000  Level Oakland Center
Sun 05:12:09 PM 39.4586 -119.4136 337° Northwest 256 295 28,000  Level Oakland Center
Sun 05:13:09 PM 39.5256 -119.4497 337° Northwest 256 295 28,000 -99 Level Oakland Center
Sun 05:14:10 PM 39.5928 -119.4861 338° Northwest 256 295 27,800 -350 Descending Oakland Center
Sun 05:15:09 PM 39.6622 -119.5225 338° Northwest 256 295 27,300 -706 Descending Oakland Center
Sun 05:16:09 PM 39.7375 -119.5614 338° Northwest 261 300 26,400 -850 Descending Oakland Center
Sun 05:17:09 PM 39.8153 -119.6031 339° North 277 319 25,600 -645 Descending Oakland Center
Sun 05:18:10 PM 39.8886 -119.6394 336° Northwest 282 325 25,100 -550 Descending Oakland Center
Sun 05:19:09 PM 39.9619 -119.6814 338° Northwest 282 325 24,500 -550 Descending Oakland Center
Sun 05:20:10 PM 40.0375 -119.7208 337° Northwest 287 330 24,000 -250 Descending Oakland Center
Sun 05:21:09 PM 40.1089 -119.7603 338° Northwest 287 330 24,000  Level Oakland Center
Sun 05:22:10 PM 40.1800 -119.7969 339° North 276 318 24,000  Level Oakland Center
Sun 05:23:09 PM 40.2533 -119.8339 336° Northwest 276 318 24,000  Level Oakland Center
Sun 05:24:09 PM 40.3225 -119.8736 338° Northwest 276 318 24,000  Level Oakland Center
Sun 05:26:48 PM 40.5086 -119.9733 338° Northwest 273 314 24,000  Level Seattle Center
Sun 05:27:49 PM 40.5794 -120.0117 337° Northwest 274 315 24,000  Level Seattle Center
Sun 05:28:50 PM 40.6408 -120.0453 337° Northwest 271 312 24,000  Level Seattle Center
Sun 05:32:55 PM 40.9314 -120.2064 337° Northwest 270 311 24,000  Level Seattle Center
Sun 05:38:02 PM 41.2842 -120.4011 337° Northwest 277 319 24,000  Level Seattle Center
Sun 05:39:03 PM 41.3692 -120.4483 337° Northwest 277 319 24,000  Level Seattle Center
Sun 05:40:05 PM 41.4397 -120.4883 337° Northwest 275 316 24,000  Level Seattle Center
Sun 05:41:06 PM 41.5100 -120.5272 337° Northwest 275 316 24,000  Level Seattle Center
Sun 05:42:07 PM 41.5811 -120.5667 336° Northwest 277 319 24,000  Level Seattle Center
Sun 05:43:09 PM 41.6517 -120.6078 337° Northwest 276 318 24,000  Level Seattle Center
Sun 05:44:10 PM 41.7217 -120.6472 336° Northwest 275 316 24,000  Level Seattle Center
Sun 05:45:11 PM 41.7914 -120.6883 337° Northwest 274 315 24,000  Level Seattle Center
Sun 05:46:12 PM 41.8619 -120.7283 337° Northwest 275 316 24,000  Level Seattle Center
Sun 05:47:14 PM 41.9344 -120.7703 337° Northwest 278 320 24,000  Level Seattle Center
Sun 05:48:27 PM 42.0061 -120.8103 337° Northwest 279 321 24,000  Level Seattle Center
Sun 05:49:28 PM 42.1053 -120.8672 337° Northwest 278 320 24,000  Level Seattle Center
Sun 05:50:30 PM 42.1761 -120.9072 336° Northwest 278 320 24,000  Level Seattle Center
Sun 05:51:31 PM 42.2464 -120.9486 337° Northwest 277 319 24,000  Level Seattle Center
Sun 05:52:32 PM 42.3175 -120.9900 337° Northwest 277 319 24,000  Level Seattle Center
Sun 05:53:34 PM 42.3894 -121.0319 337° Northwest 281 323 24,000  Level Seattle Center
Sun 05:54:35 PM 42.4608 -121.0725 337° Northwest 281 323 24,000  Level Seattle Center
Sun 05:55:36 PM 42.5167 -121.1053 337° Northwest 277 319 24,000  Level Seattle Center
Sun 05:56:38 PM 42.6008 -121.1528 336° Northwest 275 316 24,000  Level Seattle Center
Sun 05:57:39 PM 42.6856 -121.2031 337° Northwest 277 319 24,000  Level Seattle Center
Sun 05:58:40 PM 42.7578 -121.2442 335° Northwest 280 322 24,000  Level Seattle Center
Sun 05:59:42 PM 42.8294 -121.2889 337° Northwest 282 325 24,000  Level Seattle Center
Sun 06:00:43 PM 42.9008 -121.3300 336° Northwest 280 322 24,000  Level Seattle Center
Sun 06:01:56 PM 42.9708 -121.3717 336° Northwest 277 319 24,000  Level Seattle Center
Sun 06:02:58 PM 43.0561 -121.4225 337° Northwest 278 320 24,000  Level Seattle Center
Sun 06:03:59 PM 43.1275 -121.4642 337° Northwest 278 320 24,000  Level Seattle Center
Sun 06:05:01 PM 43.1978 -121.5053 336° Northwest 276 318 24,000  Level Seattle Center
Sun 06:06:02 PM 43.2694 -121.5483 337° Northwest 279 321 24,000  Level Seattle Center
Sun 06:07:03 PM 43.3556 -121.5997 336° Northwest 281 323 24,000  Level Seattle Center
Sun 06:08:05 PM 43.4256 -121.6428 337° Northwest 278 320 24,000  Level Seattle Center
Sun 06:09:06 PM 43.4964 -121.6842 337° Northwest 277 319 24,000  Level Seattle Center
Sun 06:10:07 PM 43.5678 -121.7261 336° Northwest 278 320 24,000  Level Seattle Center
Sun 06:11:09 PM 43.6386 -121.7694 337° Northwest 278 320 24,000  Level Seattle Center
Sun 06:12:10 PM 43.7083 -121.8111 337° Northwest 275 316 24,000 -98 Level Seattle Center
Sun 06:13:11 PM 43.7781 -121.8522 337° Northwest 273 314 23,800 -390 Descending Seattle Center
Sun 06:14:13 PM 43.8639 -121.9028 337° Northwest 290 334 23,200 -634 Descending Seattle Center
Sun 06:15:14 PM 43.9400 -121.9486 336° Northwest 297 342 22,500 -738 Descending Seattle Center
Sun 06:16:15 PM 44.0167 -121.9958 336° Northwest 300 345 21,700 -885 Descending Seattle Center
Sun 06:17:16 PM 44.0953 -122.0439 336° Northwest 305 351 20,700 -976 Descending Seattle Center
Sun 06:18:18 PM 44.1747 -122.0931 336° Northwest 311 358 19,700 -1,024 Descending Seattle Center
Sun 06:19:19 PM 44.2544 -122.1433 336° Northwest 313 360 18,600 -761 Descending Seattle Center
Sun 06:20:32 PM 44.3339 -122.1922 336° Northwest 313 360 18,000 -800 Descending Seattle Center
Sun 06:21:34 PM 44.4300 -122.2511 337° Northwest 314 361 16,800 -1,171 Descending Seattle Center
Sun 06:22:35 PM 44.5203 -122.3053 335° Northwest 301 346 15,600 -1,073 Descending Seattle Center
Sun 06:23:37 PM 44.5900 -122.3506 335° Northwest 285 328 14,600 -1,220 Descending Seattle Center
Sun 06:24:38 PM 44.6597 -122.3958 337° Northwest 279 321 13,100 -1,573 Descending Seattle Center
Sun 06:25:20 PM 44.7169 -122.4306 335° Northwest 287 330 11,900 -1,525 Descending Seattle Center
Sun 06:26:40 PM 44.8044 -122.4872 337° Northwest 284 327 10,000 -1,479 Descending Seattle Center
Sun 06:27:42 PM 44.8786 -122.5314 339° North 279 321 8,400 -1,610 Descending Seattle Center
Sun 06:28:43 PM 44.9481 -122.5697 330° Northwest 274 315 6,700 -1,672 Descending Seattle Center
Sun 06:29:44 PM 45.0036 -122.6158 332° Northwest 241 277 5,000 -1,279 Descending Seattle Center
Sun 06:30:45 PM 45.0578 -122.6567 330° Northwest 225 259 4,100 -836 Descending Seattle Center
Sun 06:31:46 PM 45.1078 -122.6978 330° Northwest 214 246 3,300 -683 Descending Seattle Center
Sun 06:32:48 PM 45.1539 -122.7361 328° Northwest 200 230 2,700 -829 Descending Seattle Center
Sun 06:33:49 PM 45.1872 -122.7656 350° North 151 174 1,600 -1,082 Descending Seattle Center
Sun 06:34:50 PM 45.2244 -122.7750 350° North 120 138 500 -1,082 Descending Seattle Center

Login

Don't have an account? Register now (free) for customized features, flight alerts, and more!